createdAt,value
2018-07-07T00:03:10.751Z,12.80
2018-07-07T00:09:16.382Z,12.60
2018-07-07T00:15:23.091Z,12.40
2018-07-07T00:21:29.298Z,12.30
2018-07-07T00:27:35.061Z,12.30
2018-07-07T00:33:41.245Z,12.30
2018-07-07T00:39:47.027Z,12.40
2018-07-07T00:45:53.112Z,12.50
2018-07-07T00:51:58.897Z,12.70
2018-07-07T00:58:04.613Z,12.70
2018-07-07T01:04:10.331Z,12.60
2018-07-07T01:10:16.349Z,12.50
2018-07-07T01:16:24.808Z,12.30
2018-07-07T01:22:30.592Z,12.10
2018-07-07T01:28:36.268Z,11.90
2018-07-07T01:34:42.011Z,11.70
2018-07-07T01:40:47.938Z,11.60
2018-07-07T01:46:53.970Z,11.40
2018-07-07T01:52:59.837Z,11.20
2018-07-07T01:59:05.820Z,11.00
2018-07-07T02:05:11.544Z,10.90
2018-07-07T02:11:17.278Z,10.80
2018-07-07T02:17:28.008Z,10.70
2018-07-07T02:23:33.717Z,10.60
2018-07-07T02:29:40.285Z,10.50
2018-07-07T02:35:46.243Z,10.50
2018-07-07T02:41:52.595Z,10.30
2018-07-07T02:47:58.506Z,10.20
2018-07-07T02:54:04.302Z,10.30
2018-07-07T03:00:10.017Z,10.20
2018-07-07T03:06:15.690Z,10.10
2018-07-07T03:12:21.669Z,10.10
2018-07-07T03:18:27.502Z,10.10
2018-07-07T03:24:33.246Z,10.10
2018-07-07T03:30:38.969Z,10.30
2018-07-07T03:36:44.627Z,10.50
2018-07-07T03:42:51.180Z,10.60
2018-07-07T03:48:57.607Z,10.70
2018-07-07T03:55:03.617Z,10.60
2018-07-07T04:01:09.356Z,10.60
2018-07-07T04:07:15.426Z,10.60
2018-07-07T04:13:21.428Z,10.70
2018-07-07T04:19:27.203Z,10.80
2018-07-07T04:25:32.861Z,11.00
2018-07-07T04:31:38.573Z,11.20
2018-07-07T04:37:44.289Z,11.40
2018-07-07T04:43:50.566Z,11.50
2018-07-07T04:49:56.822Z,11.60
2018-07-07T04:56:02.609Z,11.60
2018-07-07T05:02:08.353Z,11.70
2018-07-07T05:08:14.235Z,11.90
2018-07-07T05:14:19.980Z,12.00
2018-07-07T05:20:25.893Z,12.30
2018-07-07T05:26:31.704Z,12.60
2018-07-07T05:32:37.617Z,12.90
2018-07-07T05:44:49.481Z,13.30
2018-07-07T05:50:55.351Z,13.50
2018-07-07T05:57:01.053Z,13.90
2018-07-07T06:03:07.081Z,14.20
2018-07-07T06:09:12.809Z,14.40
2018-07-07T06:15:18.491Z,14.70
2018-07-07T06:21:24.799Z,14.90
2018-07-07T06:27:30.588Z,14.90
2018-07-07T06:33:36.465Z,14.90
2018-07-07T06:39:42.145Z,14.90
2018-07-07T06:45:48.004Z,15.00
2018-07-07T07:08:13.860Z,15.10
2018-07-07T07:14:20.230Z,15.70
2018-07-07T07:20:27.009Z,16.20
2018-07-07T07:26:32.757Z,16.70
2018-07-07T07:32:38.742Z,16.80
2018-07-07T07:38:44.428Z,16.90
2018-07-07T07:44:50.092Z,17.10
2018-07-07T07:50:56.104Z,17.50
2018-07-07T07:57:01.739Z,17.90
2018-07-07T08:03:07.878Z,17.80
2018-07-07T08:09:13.569Z,17.90
2018-07-07T08:15:19.916Z,18.10
2018-07-07T08:21:25.943Z,18.60
2018-07-07T08:27:31.751Z,18.70
2018-07-07T08:33:37.579Z,19.10
2018-07-07T08:39:43.384Z,19.90
2018-07-07T08:45:49.177Z,20.10
2018-07-07T08:51:56.012Z,20.20
2018-07-07T08:58:02.098Z,20.00
2018-07-07T09:04:07.917Z,20.50
2018-07-07T09:10:13.843Z,20.70
2018-07-07T09:16:19.545Z,20.70
2018-07-07T09:22:25.348Z,21.10
2018-07-07T09:28:31.044Z,21.60
2018-07-07T09:34:36.695Z,21.20
2018-07-07T09:40:42.484Z,21.50
2018-07-07T09:46:48.151Z,21.60
2018-07-07T09:52:55.437Z,22.20
2018-07-07T09:59:01.650Z,22.30
2018-07-07T10:05:07.942Z,22.40
2018-07-07T10:11:13.712Z,22.50
2018-07-07T10:17:19.740Z,23.20
2018-07-07T10:23:26.142Z,23.50
2018-07-07T10:29:31.778Z,24.10
2018-07-07T10:35:37.403Z,23.40
2018-07-07T10:41:43.926Z,23.50
2018-07-07T10:47:50.356Z,24.20
2018-07-07T10:53:56.343Z,24.20
2018-07-07T11:00:01.981Z,24.30
2018-07-07T11:06:07.892Z,24.00
2018-07-07T11:12:13.916Z,23.90
2018-07-07T11:18:19.567Z,24.40
2018-07-07T11:24:26.198Z,24.90
2018-07-07T11:30:32.302Z,25.20
2018-07-07T11:36:38.282Z,25.60
2018-07-07T11:42:43.948Z,25.50
2018-07-07T11:48:49.833Z,25.50
2018-07-07T11:54:55.996Z,25.30
2018-07-07T12:01:01.731Z,25.60
2018-07-07T12:07:07.484Z,25.90
2018-07-07T12:13:13.287Z,26.30
2018-07-07T12:19:18.941Z,27.10
2018-07-07T12:25:25.153Z,26.60
2018-07-07T12:31:30.799Z,26.90
2018-07-07T12:37:36.523Z,26.40
2018-07-07T12:43:42.379Z,26.50
2018-07-07T12:49:48.041Z,26.90
2018-07-07T12:55:55.008Z,26.50
2018-07-07T13:02:00.692Z,26.90
2018-07-07T13:08:06.569Z,27.00
2018-07-07T13:14:12.490Z,26.90
2018-07-07T13:20:18.102Z,26.60
2018-07-07T13:26:24.671Z,26.20
2018-07-07T13:32:30.385Z,26.50
2018-07-07T13:38:37.485Z,26.70
2018-07-07T13:44:43.441Z,26.80
2018-07-07T13:50:49.186Z,27.60
2018-07-07T13:56:55.354Z,28.00
2018-07-07T14:03:01.378Z,27.90
2018-07-07T14:09:08.360Z,28.50
2018-07-07T14:15:13.981Z,28.60
2018-07-07T14:21:19.732Z,28.20
2018-07-07T14:27:25.720Z,27.90
2018-07-07T14:33:31.589Z,28.40
2018-07-07T14:40:00.398Z,28.20
2018-07-07T14:46:09.350Z,28.00
2018-07-07T14:52:15.452Z,28.20
2018-07-07T14:58:22.048Z,27.90
2018-07-07T15:04:27.784Z,28.10
2018-07-07T15:10:33.604Z,29.10
2018-07-07T15:16:39.307Z,28.90
2018-07-07T15:22:45.292Z,28.00
2018-07-07T15:28:51.267Z,27.60
2018-07-07T15:34:57.609Z,27.80
2018-07-07T15:41:03.580Z,28.80
2018-07-07T15:47:09.290Z,28.70
2018-07-07T15:53:15.145Z,29.00
2018-07-07T15:59:22.477Z,28.80
2018-07-07T16:05:28.318Z,28.60
2018-07-07T16:11:34.536Z,28.70
2018-07-07T16:17:40.370Z,28.60
2018-07-07T16:23:46.424Z,28.30
2018-07-07T16:29:54.018Z,28.30
2018-07-07T16:35:59.914Z,28.00
2018-07-07T16:42:05.654Z,28.30
2018-07-07T16:48:11.447Z,29.80
2018-07-07T16:54:20.077Z,30.90
2018-07-07T17:00:27.565Z,31.10
2018-07-07T17:06:33.807Z,30.70
2018-07-07T17:12:39.879Z,31.10
2018-07-07T17:18:46.161Z,31.60
2018-07-07T17:24:53.985Z,31.40
2018-07-07T17:31:02.303Z,32.10
2018-07-07T17:37:08.106Z,31.10
2018-07-07T17:43:14.081Z,30.80
2018-07-07T17:49:19.901Z,30.90
2018-07-07T17:55:27.090Z,30.20
2018-07-07T18:01:33.425Z,29.90
2018-07-07T18:07:39.232Z,29.60
2018-07-07T18:13:44.945Z,29.80
2018-07-07T18:19:51.267Z,29.30
2018-07-07T18:25:57.068Z,28.30
2018-07-07T18:32:02.726Z,27.50
2018-07-07T18:38:08.741Z,26.50
2018-07-07T18:44:14.541Z,25.30
2018-07-07T18:50:20.315Z,25.20
2018-07-07T18:56:26.170Z,24.80
2018-07-07T19:02:31.779Z,24.00
2018-07-07T19:08:37.533Z,23.10
2018-07-07T19:14:43.356Z,22.40
2018-07-07T19:20:54.180Z,22.00
2018-07-07T19:27:03.711Z,21.60
2018-07-07T19:33:14.596Z,21.20
2018-07-07T19:39:20.399Z,20.80
2018-07-07T19:45:26.433Z,20.60
2018-07-07T19:51:33.173Z,20.30
2018-07-07T19:57:38.880Z,20.10
2018-07-07T20:03:44.689Z,19.90
2018-07-07T20:09:50.518Z,19.70
2018-07-07T20:16:21.209Z,19.50
2018-07-07T20:22:27.148Z,19.20
2018-07-07T20:28:38.095Z,19.00
2018-07-07T20:34:43.755Z,18.90
2018-07-07T20:40:50.453Z,18.70
2018-07-07T20:53:01.543Z,18.60
2018-07-07T20:59:07.389Z,18.50
2018-07-07T21:05:13.190Z,18.40
2018-07-07T21:11:19.166Z,18.30
2018-07-07T21:17:25.520Z,18.10
2018-07-07T21:23:31.231Z,18.00
2018-07-07T21:29:36.921Z,17.70
2018-07-07T21:35:42.663Z,17.50
2018-07-07T21:41:48.548Z,17.10
2018-07-07T21:47:55.737Z,16.90
2018-07-07T21:54:02.007Z,16.80
2018-07-07T22:06:13.707Z,16.40
2018-07-07T22:12:19.623Z,16.20
2018-07-07T22:18:26.030Z,16.10
2018-07-07T22:24:31.877Z,16.00
2018-07-07T22:30:37.720Z,15.90
2018-07-07T22:36:43.458Z,15.90
2018-07-07T22:42:49.819Z,15.70
2018-07-07T22:48:56.339Z,15.70
2018-07-07T22:55:02.096Z,15.60
2018-07-07T23:01:08.024Z,15.40
2018-07-07T23:07:14.128Z,15.40
2018-07-07T23:13:20.155Z,15.30
2018-07-07T23:19:26.055Z,15.10
2018-07-07T23:25:31.762Z,14.90
2018-07-07T23:31:37.529Z,14.80
2018-07-07T23:37:43.532Z,14.70
2018-07-07T23:43:49.676Z,14.60
2018-07-07T23:49:55.445Z,14.50
2018-07-07T23:56:01.256Z,14.50
